Time;durP1;ratioP1;P1;durP2;ratioP2;P2;SDS_P1;SDS_P2;PMS_P1;PMS_P2;Temp;Humidity;BMP_temperature;BMP_pressure;BME280_temperature;BME280_humidity;BME280_pressure;Samples;Min_cycle;Max_cycle;Signal;HPM_P1;HPM_P2
2023/09/29 00:01:11;;;;;;;;;;;15.90;99.90;;;;;;5115567;28;19914;-47
2023/09/29 00:03:36;;;;;;;;;;;15.90;99.90;;;;;;5115338;28;19922;-44
2023/09/29 00:06:03;;;;;;;;;;;15.90;99.90;;;;;;5115469;28;20374;-45
2023/09/29 00:08:29;;;;;;;;;;;15.90;99.90;;;;;;5115143;28;19908;-45
2023/09/29 00:10:54;;;;;;;;;;;15.80;99.90;;;;;;5115353;28;20377;-45
2023/09/29 00:13:19;;;;;;;;;;;15.80;99.90;;;;;;5115299;28;19915;-45
2023/09/29 00:15:48;;;;;;;;;;;15.80;99.90;;;;;;5115408;28;20343;-44
2023/09/29 00:18:15;;;;;;;;;;;15.80;99.90;;;;;;5154749;27;19954;-45
2023/09/29 00:20:40;;;;;;;;;;;15.80;99.90;;;;;;5156456;27;19960;-46
2023/09/29 00:23:06;;;;;;;;;;;15.80;99.90;;;;;;5151686;27;19915;-45
2023/09/29 00:25:32;;;;;;;;;;;15.80;99.90;;;;;;5135399;27;20246;-46
2023/09/29 00:27:57;;;;;;;;;;;15.80;99.90;;;;;;5135659;27;19998;-44
2023/09/29 00:30:23;;;;;;;;;;;15.80;99.90;;;;;;5135170;27;19916;-46
2023/09/29 00:32:52;;;;;;;;;;;15.80;99.90;;;;;;5134548;27;20329;-44
2023/09/29 00:35:24;;;;;;;;;;;15.80;99.90;;;;;;5135496;27;19908;-43
2023/09/29 00:37:50;;;;;;;;;;;15.80;99.90;;;;;;5135511;27;19908;-45
2023/09/29 00:40:15;;;;;;;;;;;15.80;99.90;;;;;;5135391;27;19914;-44
2023/09/29 00:42:42;;;;;;;;;;;15.80;99.90;;;;;;5135150;27;19916;-45
2023/09/29 00:45:08;;;;;;;;;;;15.80;99.90;;;;;;5135389;27;19907;-45
2023/09/29 00:47:36;;;;;;;;;;;15.90;99.90;;;;;;5135088;27;19955;-45
2023/09/29 00:50:07;;;;;;;;;;;15.90;99.90;;;;;;5134824;27;19907;-44
2023/09/29 00:52:33;;;;;;;;;;;15.90;99.90;;;;;;5135106;27;19960;-44
2023/09/29 00:54:59;;;;;;;;;;;15.90;99.90;;;;;;5135186;27;19924;-45
2023/09/29 00:57:25;;;;;;;;;;;16.00;99.90;;;;;;5134948;27;19933;-45
2023/09/29 00:59:51;;;;;;;;;;;16.00;99.90;;;;;;5134953;27;20364;-44
2023/09/29 01:02:17;;;;;;;;;;;16.00;99.90;;;;;;5134954;27;19993;-47
2023/09/29 01:04:44;;;;;;;;;;;16.00;99.90;;;;;;5134770;27;20276;-45
2023/09/29 01:07:11;;;;;;;;;;;16.00;99.90;;;;;;5134700;27;19911;-47
2023/09/29 01:09:37;;;;;;;;;;;16.00;99.90;;;;;;5134722;27;19914;-47
2023/09/29 01:12:08;;;;;;;;;;;16.00;99.90;;;;;;5134762;27;19911;-47
2023/09/29 01:14:34;;;;;;;;;;;15.90;99.90;;;;;;5134619;27;19957;-46
2023/09/29 01:17:00;;;;;;;;;;;15.90;99.90;;;;;;5134692;27;19943;-46
2023/09/29 01:19:25;;;;;;;;;;;15.90;99.90;;;;;;5134512;27;19998;-44
2023/09/29 01:21:51;;;;;;;;;;;15.90;99.90;;;;;;5134081;27;19919;-46
2023/09/29 01:24:16;;;;;;;;;;;15.90;99.90;;;;;;5134530;27;19915;-46
2023/09/29 01:26:44;;;;;;;;;;;15.90;99.90;;;;;;5134385;27;20403;-44
2023/09/29 01:29:11;;;;;;;;;;;15.90;99.90;;;;;;5134460;27;19912;-44
2023/09/29 01:31:37;;;;;;;;;;;15.90;99.90;;;;;;5134253;27;19908;-44
2023/09/29 01:34:04;;;;;;;;;;;15.90;99.90;;;;;;5133917;27;20259;-46
2023/09/29 01:36:32;;;;;;;;;;;15.90;99.90;;;;;;5134352;27;19907;-46
2023/09/29 01:38:58;;;;;;;;;;;15.90;99.90;;;;;;5134092;27;20350;-46
2023/09/29 01:41:24;;;;;;;;;;;15.90;99.90;;;;;;5134095;27;19922;-44
2023/09/29 01:43:49;;;;;;;;;;;15.90;99.90;;;;;;5134053;27;19923;-45
2023/09/29 01:46:15;;;;;;;;;;;15.90;99.90;;;;;;5134052;27;20413;-43
2023/09/29 01:48:41;;;;;;;;;;;15.90;99.90;;;;;;5133966;27;19908;-44
2023/09/29 01:51:06;;;;;;;;;;;15.90;99.90;;;;;;5134040;27;19907;-47
2023/09/29 01:53:32;;;;;;;;;;;15.90;99.90;;;;;;5133988;27;19954;-44
2023/09/29 01:55:58;;;;;;;;;;;15.90;99.90;;;;;;5134038;27;19908;-44
2023/09/29 01:58:24;;;;;;;;;;;15.90;99.90;;;;;;5133860;27;19911;-44
2023/09/29 02:00:49;;;;;;;;;;;16.00;99.90;;;;;;5133859;27;19907;-44
2023/09/29 02:03:15;;;;;;;;;;;16.00;99.90;;;;;;5133701;27;19938;-47
2023/09/29 02:05:40;;;;;;;;;;;16.00;99.90;;;;;;5133718;27;19915;-45
2023/09/29 02:08:06;;;;;;;;;;;16.00;99.90;;;;;;5133773;27;19962;-46
2023/09/29 02:10:32;;;;;;;;;;;16.00;99.90;;;;;;5133674;28;20362;-44
2023/09/29 02:12:58;;;;;;;;;;;16.00;99.90;;;;;;5133641;28;19907;-45
2023/09/29 02:15:25;;;;;;;;;;;16.00;99.90;;;;;;5133592;28;20002;-46
2023/09/29 02:17:50;;;;;;;;;;;16.00;99.90;;;;;;5133800;28;19918;-44
2023/09/29 02:20:29;;;;;;;;;;;16.00;99.90;;;;;;5133699;28;19915;-44
2023/09/29 02:22:55;;;;;;;;;;;16.00;99.90;;;;;;5133695;28;19919;-44
2023/09/29 02:25:25;;;;;;;;;;;16.10;99.90;;;;;;5133452;28;20033;-43
2023/09/29 02:27:58;;;;;;;;;;;16.10;99.90;;;;;;5133623;28;19908;-44
2023/09/29 02:30:24;;;;;;;;;;;16.10;99.90;;;;;;5133555;28;20363;-44
2023/09/29 02:32:52;;;;;;;;;;;16.10;99.90;;;;;;5134634;27;19907;-46
2023/09/29 02:35:17;;;;;;;;;;;16.10;99.90;;;;;;5137665;27;19919;-45
2023/09/29 02:37:43;;;;;;;;;;;16.10;99.90;;;;;;5137460;27;19916;-46
2023/09/29 02:40:12;;;;;;;;;;;16.20;99.90;;;;;;5137695;27;19907;-46
2023/09/29 02:42:37;;;;;;;;;;;16.20;99.90;;;;;;5136982;27;19923;-44
2023/09/29 02:45:04;;;;;;;;;;;16.20;99.90;;;;;;5137127;27;19911;-44
2023/09/29 02:47:30;;;;;;;;;;;16.20;99.90;;;;;;5137094;27;19995;-45
2023/09/29 02:49:58;;;;;;;;;;;16.20;99.90;;;;;;5137100;27;19911;-46
2023/09/29 02:52:25;;;;;;;;;;;16.20;99.90;;;;;;5137341;27;19938;-45
2023/09/29 02:54:50;;;;;;;;;;;16.20;99.90;;;;;;5137405;27;19918;-44
2023/09/29 02:57:16;;;;;;;;;;;16.20;99.90;;;;;;5137385;27;19911;-46
2023/09/29 02:59:42;;;;;;;;;;;16.20;99.90;;;;;;5137302;27;20045;-45
2023/09/29 03:02:08;;;;;;;;;;;16.20;99.90;;;;;;5137197;27;19915;-45
2023/09/29 03:04:33;;;;;;;;;;;16.30;99.90;;;;;;5137179;27;19912;-46
2023/09/29 03:06:59;;;;;;;;;;;16.20;99.90;;;;;;5137109;27;19907;-43
2023/09/29 03:09:25;;;;;;;;;;;16.20;99.90;;;;;;5137084;27;19908;-46
2023/09/29 03:11:51;;;;;;;;;;;16.20;99.90;;;;;;5137020;27;19914;-47
2023/09/29 03:14:17;;;;;;;;;;;16.20;99.90;;;;;;5137036;27;19955;-45
2023/09/29 03:16:43;;;;;;;;;;;16.30;99.90;;;;;;5136972;27;19995;-49
2023/09/29 03:19:09;;;;;;;;;;;16.20;99.90;;;;;;5136934;27;19957;-44
2023/09/29 03:21:34;;;;;;;;;;;16.30;99.90;;;;;;5136880;27;19911;-44
2023/09/29 03:24:01;;;;;;;;;;;16.30;99.90;;;;;;5136811;27;19926;-46
2023/09/29 03:26:26;;;;;;;;;;;16.30;99.90;;;;;;5136673;27;19908;-45
2023/09/29 03:28:54;;;;;;;;;;;16.30;99.90;;;;;;5136796;27;19914;-45
2023/09/29 03:31:22;;;;;;;;;;;16.30;99.90;;;;;;5136667;27;19950;-45
2023/09/29 03:33:47;;;;;;;;;;;16.30;99.90;;;;;;5136681;27;19931;-44
2023/09/29 03:36:14;;;;;;;;;;;16.30;99.90;;;;;;5136601;27;19912;-43
2023/09/29 03:38:41;;;;;;;;;;;16.30;99.90;;;;;;5136494;27;19911;-44
2023/09/29 03:41:08;;;;;;;;;;;16.20;99.90;;;;;;5136509;27;19918;-46
2023/09/29 03:43:33;;;;;;;;;;;16.20;99.90;;;;;;5135652;27;20366;-46
2023/09/29 03:45:59;;;;;;;;;;;16.20;99.90;;;;;;5136519;27;19914;-45
2023/09/29 03:48:25;;;;;;;;;;;16.20;99.90;;;;;;5136399;27;19975;-48
2023/09/29 03:50:52;;;;;;;;;;;16.20;99.90;;;;;;5136444;27;19911;-45
2023/09/29 03:53:17;;;;;;;;;;;16.20;99.90;;;;;;5135919;27;19918;-44
2023/09/29 03:55:44;;;;;;;;;;;16.30;99.90;;;;;;5135989;27;20010;-45
2023/09/29 03:58:10;;;;;;;;;;;16.20;99.90;;;;;;5120846;27;19911;-44
2023/09/29 04:00:36;;;;;;;;;;;16.20;99.90;;;;;;5136106;27;19907;-43
2023/09/29 04:03:01;;;;;;;;;;;16.20;99.90;;;;;;5135418;27;20393;-47
2023/09/29 04:05:27;;;;;;;;;;;16.20;99.90;;;;;;5135863;27;19937;-45
2023/09/29 04:07:53;;;;;;;;;;;16.20;99.90;;;;;;5135876;27;19927;-45
2023/09/29 04:10:20;;;;;;;;;;;16.20;99.90;;;;;;5135909;27;19907;-45
2023/09/29 04:12:46;;;;;;;;;;;16.20;99.90;;;;;;5135876;27;19968;-45
2023/09/29 04:15:12;;;;;;;;;;;16.20;99.90;;;;;;5135911;27;20358;-44
2023/09/29 04:17:38;;;;;;;;;;;16.20;99.90;;;;;;5135729;27;19911;-46
2023/09/29 04:20:04;;;;;;;;;;;16.20;99.90;;;;;;5135553;27;19934;-44
2023/09/29 04:22:29;;;;;;;;;;;16.30;99.90;;;;;;5135527;27;19961;-44
2023/09/29 04:24:56;;;;;;;;;;;16.30;99.90;;;;;;5135722;27;19907;-47
2023/09/29 04:27:21;;;;;;;;;;;16.30;99.90;;;;;;5135680;27;19908;-45
2023/09/29 04:29:46;;;;;;;;;;;16.30;99.90;;;;;;5135342;27;19912;-44
2023/09/29 04:32:12;;;;;;;;;;;16.30;99.90;;;;;;5135476;27;20403;-49
2023/09/29 04:34:37;;;;;;;;;;;16.40;99.90;;;;;;5135181;27;19930;-46
2023/09/29 04:37:03;;;;;;;;;;;16.30;99.90;;;;;;5135376;27;19911;-45
2023/09/29 04:39:28;;;;;;;;;;;16.40;99.90;;;;;;5135247;27;19914;-43
2023/09/29 04:41:54;;;;;;;;;;;16.40;99.90;;;;;;5135349;27;19960;-44
2023/09/29 04:44:19;;;;;;;;;;;16.40;99.90;;;;;;5135267;27;19908;-47
2023/09/29 04:46:45;;;;;;;;;;;16.40;99.90;;;;;;5135301;27;20385;-45
2023/09/29 04:49:10;;;;;;;;;;;16.40;99.90;;;;;;5135294;27;19907;-44
2023/09/29 04:51:39;;;;;;;;;;;16.50;99.90;;;;;;5135090;27;20004;-44
2023/09/29 04:54:04;;;;;;;;;;;16.50;99.90;;;;;;5134932;27;20317;-44
2023/09/29 04:56:31;;;;;;;;;;;16.50;99.90;;;;;;5134071;27;19907;-46
2023/09/29 04:58:56;;;;;;;;;;;16.50;99.90;;;;;;5135056;27;19908;-46
2023/09/29 05:01:24;;;;;;;;;;;16.50;99.90;;;;;;5134963;27;19961;-44
2023/09/29 05:03:51;;;;;;;;;;;16.50;99.90;;;;;;5134526;27;19919;-43
2023/09/29 05:06:16;;;;;;;;;;;16.60;99.90;;;;;;5134706;27;19911;-46
2023/09/29 05:08:42;;;;;;;;;;;16.60;99.90;;;;;;5134345;27;20056;-44
2023/09/29 05:11:08;;;;;;;;;;;16.60;99.90;;;;;;5134538;27;19907;-48
2023/09/29 05:13:34;;;;;;;;;;;16.60;99.90;;;;;;5135411;27;19918;-44
2023/09/29 05:16:00;;;;;;;;;;;16.60;99.90;;;;;;5134693;27;19911;-44
2023/09/29 05:18:25;;;;;;;;;;;16.60;99.90;;;;;;5134500;27;19919;-45
2023/09/29 05:20:50;;;;;;;;;;;16.60;99.90;;;;;;5134547;27;20282;-44
2023/09/29 05:23:16;;;;;;;;;;;16.60;99.90;;;;;;5134417;27;19926;-44
2023/09/29 05:25:46;;;;;;;;;;;16.70;99.90;;;;;;5134467;27;19907;-44
2023/09/29 05:28:12;;;;;;;;;;;16.60;99.90;;;;;;5146756;27;20266;-45
2023/09/29 05:30:37;;;;;;;;;;;16.70;99.90;;;;;;5134391;27;20695;-45
2023/09/29 05:33:03;;;;;;;;;;;16.60;99.90;;;;;;5128474;27;19931;-44
2023/09/29 05:35:28;;;;;;;;;;;16.70;99.90;;;;;;5134273;27;19937;-47
2023/09/29 05:37:54;;;;;;;;;;;16.70;99.90;;;;;;5134626;27;20255;-44
2023/09/29 05:40:19;;;;;;;;;;;16.70;99.90;;;;;;5143820;27;19919;-46
2023/09/29 05:42:45;;;;;;;;;;;16.70;99.90;;;;;;5148986;27;19919;-44
2023/09/29 05:45:12;;;;;;;;;;;16.70;99.90;;;;;;5147945;27;19943;-46
2023/09/29 05:47:37;;;;;;;;;;;16.70;99.90;;;;;;5133792;27;19908;-45
2023/09/29 05:50:03;;;;;;;;;;;16.70;99.90;;;;;;5134075;27;19918;-47
2023/09/29 05:52:29;;;;;;;;;;;16.70;99.90;;;;;;5133905;27;19907;-45
2023/09/29 05:54:54;;;;;;;;;;;16.80;99.90;;;;;;5132116;27;19911;-46
2023/09/29 05:57:20;;;;;;;;;;;16.80;99.90;;;;;;5114589;27;19911;-45
2023/09/29 05:59:46;;;;;;;;;;;16.80;99.90;;;;;;5127538;27;19912;-45
2023/09/29 06:02:11;;;;;;;;;;;16.80;99.90;;;;;;5119989;27;19920;-46
2023/09/29 06:04:37;;;;;;;;;;;16.70;99.90;;;;;;5115902;28;20002;-45
2023/09/29 06:07:03;;;;;;;;;;;16.80;99.90;;;;;;5127408;27;19994;-46
2023/09/29 06:09:29;;;;;;;;;;;16.80;99.90;;;;;;5143878;27;19962;-44
2023/09/29 06:11:55;;;;;;;;;;;16.80;99.90;;;;;;5139860;27;19914;-46
2023/09/29 06:14:20;;;;;;;;;;;16.80;99.90;;;;;;5135575;27;19915;-44
2023/09/29 06:16:46;;;;;;;;;;;16.80;99.90;;;;;;5141178;27;20004;-44
2023/09/29 06:19:11;;;;;;;;;;;16.80;99.90;;;;;;5138439;27;19915;-47
2023/09/29 06:21:37;;;;;;;;;;;16.80;99.90;;;;;;5142944;27;19915;-45
2023/09/29 06:24:03;;;;;;;;;;;16.90;99.90;;;;;;5142110;27;19926;-45
2023/09/29 06:26:29;;;;;;;;;;;16.90;99.90;;;;;;5144096;27;19908;-46
2023/09/29 06:28:54;;;;;;;;;;;16.90;99.90;;;;;;5141280;27;19934;-44
2023/09/29 06:31:20;;;;;;;;;;;16.90;99.90;;;;;;5143054;27;19913;-44
2023/09/29 06:33:46;;;;;;;;;;;16.90;99.90;;;;;;5128331;27;20006;-45
2023/09/29 06:36:11;;;;;;;;;;;16.90;99.90;;;;;;5121828;28;20002;-45
2023/09/29 06:38:37;;;;;;;;;;;16.90;99.90;;;;;;5121960;28;20346;-46
2023/09/29 06:41:02;;;;;;;;;;;16.90;99.90;;;;;;5122433;28;19994;-45
2023/09/29 06:43:28;;;;;;;;;;;17.00;99.90;;;;;;5120478;28;19916;-45
2023/09/29 06:45:53;;;;;;;;;;;17.00;99.90;;;;;;5123035;28;20004;-45
2023/09/29 06:48:19;;;;;;;;;;;17.00;99.90;;;;;;5115770;28;19907;-47
2023/09/29 06:50:44;;;;;;;;;;;17.00;99.90;;;;;;5120603;28;19912;-46
2023/09/29 06:53:10;;;;;;;;;;;17.00;99.90;;;;;;5116966;28;19914;-44
2023/09/29 06:55:35;;;;;;;;;;;17.00;99.90;;;;;;5113580;28;19946;-44
2023/09/29 06:58:03;;;;;;;;;;;17.00;99.90;;;;;;5124641;28;20010;-43
2023/09/29 07:00:28;;;;;;;;;;;17.10;99.90;;;;;;5116797;28;19912;-44
2023/09/29 07:02:54;;;;;;;;;;;17.00;99.90;;;;;;5097094;28;19923;-45
2023/09/29 07:05:19;;;;;;;;;;;17.10;99.90;;;;;;5118835;28;20016;-46
2023/09/29 07:07:45;;;;;;;;;;;17.10;99.90;;;;;;5114595;28;19919;-45
2023/09/29 07:10:10;;;;;;;;;;;17.10;99.90;;;;;;5122239;28;20370;-45
2023/09/29 07:12:36;;;;;;;;;;;17.10;99.90;;;;;;5120121;28;20423;-44
2023/09/29 07:15:02;;;;;;;;;;;17.10;99.90;;;;;;5120162;28;19908;-45
2023/09/29 07:17:28;;;;;;;;;;;17.10;99.90;;;;;;5122595;28;19960;-45
2023/09/29 07:19:54;;;;;;;;;;;17.20;99.90;;;;;;5120541;27;19908;-45
2023/09/29 07:22:19;;;;;;;;;;;17.20;99.90;;;;;;5108338;28;20030;-46
2023/09/29 07:24:46;;;;;;;;;;;17.20;99.90;;;;;;5104567;28;19916;-44
2023/09/29 07:27:12;;;;;;;;;;;17.30;99.90;;;;;;5099718;27;19908;-45
2023/09/29 07:29:37;;;;;;;;;;;17.40;99.90;;;;;;5136704;27;20392;-46
2023/09/29 07:32:03;;;;;;;;;;;17.40;99.90;;;;;;5123901;27;19998;-45
2023/09/29 07:34:30;;;;;;;;;;;17.40;99.90;;;;;;5142720;27;19972;-44
2023/09/29 07:36:55;;;;;;;;;;;17.50;99.90;;;;;;5137227;27;19915;-45
2023/09/29 07:39:21;;;;;;;;;;;17.50;99.90;;;;;;5128236;27;20351;-44
2023/09/29 07:41:48;;;;;;;;;;;17.60;99.90;;;;;;5126234;27;19922;-47
2023/09/29 07:44:14;;;;;;;;;;;17.60;99.90;;;;;;5144280;27;19920;-47
2023/09/29 07:46:39;;;;;;;;;;;17.60;99.90;;;;;;5128727;27;19919;-45
2023/09/29 07:49:05;;;;;;;;;;;17.60;99.90;;;;;;5125240;27;20001;-47
2023/09/29 07:51:30;;;;;;;;;;;17.70;99.90;;;;;;5134882;27;19907;-44
2023/09/29 07:53:56;;;;;;;;;;;17.70;99.90;;;;;;5151140;27;19964;-45
2023/09/29 07:56:22;;;;;;;;;;;17.80;99.90;;;;;;5157262;27;19907;-44
2023/09/29 07:58:47;;;;;;;;;;;17.80;99.90;;;;;;5157117;27;19911;-44
2023/09/29 08:01:13;;;;;;;;;;;17.90;99.90;;;;;;5151101;27;19922;-44
2023/09/29 08:03:38;;;;;;;;;;;18.00;99.90;;;;;;5136461;27;19915;-46
2023/09/29 08:06:04;;;;;;;;;;;18.10;99.90;;;;;;5127882;27;20003;-45
2023/09/29 08:08:29;;;;;;;;;;;18.20;99.90;;;;;;5150948;27;19918;-45
2023/09/29 08:10:55;;;;;;;;;;;18.30;99.90;;;;;;5155067;27;19907;-44
2023/09/29 08:13:23;;;;;;;;;;;18.40;99.90;;;;;;5156354;27;19907;-47
2023/09/29 08:15:49;;;;;;;;;;;18.50;99.90;;;;;;5156307;27;19990;-44
2023/09/29 08:18:15;;;;;;;;;;;18.50;99.90;;;;;;5155816;27;20372;-44
2023/09/29 08:20:41;;;;;;;;;;;18.60;99.90;;;;;;5156042;27;19907;-44
2023/09/29 08:23:06;;;;;;;;;;;18.60;99.90;;;;;;5138925;27;20382;-44
2023/09/29 08:25:33;;;;;;;;;;;18.60;99.90;;;;;;5135296;27;19927;-46
2023/09/29 08:28:02;;;;;;;;;;;18.70;99.90;;;;;;5135494;27;19915;-45
2023/09/29 08:30:27;;;;;;;;;;;18.80;99.90;;;;;;5133978;27;19915;-45
2023/09/29 08:32:53;;;;;;;;;;;18.90;99.90;;;;;;5135042;27;19907;-45
2023/09/29 08:35:18;;;;;;;;;;;19.00;99.90;;;;;;5135530;27;20278;-45
2023/09/29 08:37:45;;;;;;;;;;;19.20;99.90;;;;;;5123348;27;19919;-46
2023/09/29 08:40:12;;;;;;;;;;;19.30;99.90;;;;;;5115543;28;19908;-45
2023/09/29 08:42:38;;;;;;;;;;;19.40;99.90;;;;;;5120477;27;19916;-44
2023/09/29 08:45:09;;;;;;;;;;;19.50;99.90;;;;;;5129287;27;19912;-45
2023/09/29 08:47:35;;;;;;;;;;;19.60;99.90;;;;;;5115255;28;19911;-44
2023/09/29 08:50:04;;;;;;;;;;;19.60;99.90;;;;;;5115289;28;20447;-47
2023/09/29 08:52:30;;;;;;;;;;;19.70;99.90;;;;;;5146834;27;19911;-46
2023/09/29 08:54:56;;;;;;;;;;;19.70;99.90;;;;;;5156563;27;19907;-44
2023/09/29 08:57:23;;;;;;;;;;;19.80;99.90;;;;;;5139496;27;19960;-44
2023/09/29 08:59:51;;;;;;;;;;;19.80;99.90;;;;;;5135663;27;19912;-44
2023/09/29 09:02:17;;;;;;;;;;;19.90;99.90;;;;;;5134693;27;19926;-43
2023/09/29 09:04:42;;;;;;;;;;;19.90;99.90;;;;;;5134899;27;19907;-45
2023/09/29 09:07:07;;;;;;;;;;;20.00;99.90;;;;;;5131715;27;20370;-46
2023/09/29 09:09:35;;;;;;;;;;;20.10;99.90;;;;;;5114900;28;19911;-47
2023/09/29 09:12:01;;;;;;;;;;;20.10;99.90;;;;;;5114665;28;20002;-45
2023/09/29 09:14:26;;;;;;;;;;;20.20;99.90;;;;;;5114674;28;19994;-43
2023/09/29 09:16:52;;;;;;;;;;;20.30;99.90;;;;;;5114967;28;19908;-45
2023/09/29 09:19:19;;;;;;;;;;;20.30;99.90;;;;;;5114588;28;19908;-44
2023/09/29 09:21:46;;;;;;;;;;;20.40;99.90;;;;;;5129252;27;20358;-45
2023/09/29 09:24:21;;;;;;;;;;;20.40;99.90;;;;;;5135121;27;20045;-45
2023/09/29 09:26:47;;;;;;;;;;;20.50;99.90;;;;;;5135130;27;19908;-44
2023/09/29 09:29:16;;;;;;;;;;;20.60;99.90;;;;;;5135065;27;19917;-45
2023/09/29 09:31:45;;;;;;;;;;;20.70;99.90;;;;;;5135023;27;20343;-46
2023/09/29 09:34:12;;;;;;;;;;;20.90;99.90;;;;;;5134695;27;19919;-46
2023/09/29 09:37:06;;;;;;;;;;;21.00;99.90;;;;;;5113882;28;19916;-43
2023/09/29 09:39:33;;;;;;;;;;;21.00;99.90;;;;;;5103698;28;19908;-45
2023/09/29 09:41:59;;;;;;;;;;;21.00;99.90;;;;;;5121680;27;19999;-45
2023/09/29 09:44:26;;;;;;;;;;;21.00;99.90;;;;;;5128860;27;19929;-47
2023/09/29 09:47:04;;;;;;;;;;;21.00;99.90;;;;;;5126579;27;19962;-46
2023/09/29 09:49:41;;;;;;;;;;;21.00;99.90;;;;;;5126599;27;20006;-45
2023/09/29 09:52:08;;;;;;;;;;;21.10;99.90;;;;;;5130351;27;19912;-44
2023/09/29 09:54:44;;;;;;;;;;;21.20;99.90;;;;;;5113115;28;19919;-45
2023/09/29 09:57:11;;;;;;;;;;;21.30;99.90;;;;;;5131593;27;20002;-46
2023/09/29 09:59:36;;;;;;;;;;;21.30;99.90;;;;;;5131572;27;19934;-46
2023/09/29 10:02:06;;;;;;;;;;;21.20;99.90;;;;;;5132069;27;20365;-46
2023/09/29 10:04:33;;;;;;;;;;;21.30;99.90;;;;;;5133918;27;19907;-44
2023/09/29 10:06:59;;;;;;;;;;;21.30;99.90;;;;;;5133121;27;20011;-45
2023/09/29 10:09:25;;;;;;;;;;;21.30;99.90;;;;;;5133762;27;19912;-45
2023/09/29 10:12:00;;;;;;;;;;;21.40;99.90;;;;;;5134154;27;19911;-44
2023/09/29 10:14:25;;;;;;;;;;;21.30;99.90;;;;;;5133585;27;20409;-45
2023/09/29 10:17:03;;;;;;;;;;;21.30;99.90;;;;;;5133076;27;20010;-45
2023/09/29 10:19:39;;;;;;;;;;;21.30;99.90;;;;;;5119741;27;20374;-47
2023/09/29 10:22:06;;;;;;;;;;;21.20;99.90;;;;;;5123079;27;19916;-45
2023/09/29 10:24:32;;;;;;;;;;;21.20;99.90;;;;;;5124617;28;19916;-44
2023/09/29 10:27:11;;;;;;;;;;;21.10;99.90;;;;;;5123513;28;19908;-44
2023/09/29 10:29:38;;;;;;;;;;;21.00;99.90;;;;;;5117066;28;20304;-44
2023/09/29 10:32:10;;;;;;;;;;;21.00;99.90;;;;;;5113572;28;19912;-46
2023/09/29 10:34:37;;;;;;;;;;;20.90;99.90;;;;;;5112919;28;19947;-44
2023/09/29 10:37:02;;;;;;;;;;;20.90;99.90;;;;;;5134093;27;19978;-44
2023/09/29 10:39:29;;;;;;;;;;;20.90;99.90;;;;;;5154908;27;20308;-44
2023/09/29 10:42:12;;;;;;;;;;;20.90;99.90;;;;;;5154903;27;20324;-45
2023/09/29 10:44:44;;;;;;;;;;;20.80;99.90;;;;;;5154243;27;19915;-43
2023/09/29 10:47:13;;;;;;;;;;;20.80;99.90;;;;;;5154229;27;20435;-44
2023/09/29 10:49:45;;;;;;;;;;;20.70;99.90;;;;;;5133899;27;19912;-45
2023/09/29 10:52:22;;;;;;;;;;;20.70;99.90;;;;;;5113577;27;19912;-44
2023/09/29 10:54:48;;;;;;;;;;;20.70;99.90;;;;;;5144131;27;19911;-46
2023/09/29 10:57:18;;;;;;;;;;;20.70;99.90;;;;;;5137865;27;19927;-44
2023/09/29 10:59:48;;;;;;;;;;;20.70;99.90;;;;;;5125924;27;20028;-44
2023/09/29 11:02:13;;;;;;;;;;;20.70;99.90;;;;;;5128206;27;19935;-46
2023/09/29 11:04:39;;;;;;;;;;;20.70;99.90;;;;;;5116068;28;20392;-43
2023/09/29 11:07:04;;;;;;;;;;;20.70;99.90;;;;;;5135588;27;19911;-44
2023/09/29 11:09:31;;;;;;;;;;;20.70;99.90;;;;;;5136775;27;20053;-44
2023/09/29 11:11:57;;;;;;;;;;;20.70;99.90;;;;;;5136550;27;19915;-46
2023/09/29 11:14:22;;;;;;;;;;;20.80;99.90;;;;;;5136534;27;19965;-46
2023/09/29 11:16:57;;;;;;;;;;;20.90;99.90;;;;;;5136347;27;20314;-45
2023/09/29 11:19:25;;;;;;;;;;;21.00;99.90;;;;;;5136451;27;19922;-44
2023/09/29 11:21:50;;;;;;;;;;;21.20;99.90;;;;;;5137122;27;19946;-45
2023/09/29 11:24:18;;;;;;;;;;;21.30;99.90;;;;;;5136679;27;19965;-44
2023/09/29 11:26:48;;;;;;;;;;;21.30;99.90;;;;;;5128702;27;19911;-44
2023/09/29 11:29:20;;;;;;;;;;;21.20;99.90;;;;;;5136632;27;19911;-45
2023/09/29 11:31:47;;;;;;;;;;;21.10;99.90;;;;;;5126115;27;19912;-47
2023/09/29 11:34:15;;;;;;;;;;;21.10;99.90;;;;;;5132989;27;20312;-46
2023/09/29 11:36:43;;;;;;;;;;;21.10;99.90;;;;;;5130082;27;20985;-45
2023/09/29 11:39:09;;;;;;;;;;;21.00;99.90;;;;;;5135978;27;20008;-44
2023/09/29 11:41:34;;;;;;;;;;;20.90;99.90;;;;;;5128554;27;19941;-44
2023/09/29 11:44:00;;;;;;;;;;;20.90;99.90;;;;;;5127500;27;19923;-45
2023/09/29 11:46:26;;;;;;;;;;;20.90;99.90;;;;;;5122042;27;19957;-45
2023/09/29 11:48:51;;;;;;;;;;;20.80;99.90;;;;;;5120183;27;19919;-45
2023/09/29 11:51:17;;;;;;;;;;;20.80;99.90;;;;;;5133163;27;19978;-46
2023/09/29 11:53:43;;;;;;;;;;;20.80;99.90;;;;;;5119955;27;19918;-44
2023/09/29 11:56:09;;;;;;;;;;;20.80;99.90;;;;;;5121604;27;20342;-46
2023/09/29 11:58:35;;;;;;;;;;;20.80;99.90;;;;;;5122293;27;19955;-44
2023/09/29 12:01:02;;;;;;;;;;;20.80;99.90;;;;;;5122677;27;19935;-45
2023/09/29 12:03:27;;;;;;;;;;;20.80;99.90;;;;;;5124372;27;19920;-45
2023/09/29 12:05:53;;;;;;;;;;;20.80;99.90;;;;;;5117770;27;19915;-44
2023/09/29 12:08:19;;;;;;;;;;;20.80;99.90;;;;;;5136970;27;19914;-48
2023/09/29 12:10:45;;;;;;;;;;;20.80;99.90;;;;;;5115566;28;20028;-46
2023/09/29 12:13:13;;;;;;;;;;;20.80;99.90;;;;;;5122856;27;19915;-45
2023/09/29 12:15:40;;;;;;;;;;;20.90;99.90;;;;;;5142326;27;20006;-44
2023/09/29 12:18:06;;;;;;;;;;;20.90;99.90;;;;;;5150494;27;20022;-46
2023/09/29 12:20:31;;;;;;;;;;;21.00;99.90;;;;;;5124784;27;19930;-47
2023/09/29 12:23:00;;;;;;;;;;;21.10;99.90;;;;;;5115970;28;20040;-46
2023/09/29 12:25:26;;;;;;;;;;;21.20;99.90;;;;;;5115735;28;20333;-45
2023/09/29 12:27:51;;;;;;;;;;;21.20;99.90;;;;;;5115865;28;19935;-46
2023/09/29 12:30:18;;;;;;;;;;;21.30;99.90;;;;;;5127244;27;19916;-46
2023/09/29 12:32:44;;;;;;;;;;;21.30;99.90;;;;;;5135151;27;19935;-44
2023/09/29 12:35:12;;;;;;;;;;;21.30;99.90;;;;;;5135516;27;19911;-45
2023/09/29 12:37:39;;;;;;;;;;;21.30;99.90;;;;;;5135089;27;19908;-44
2023/09/29 12:40:11;;;;;;;;;;;21.30;99.90;;;;;;5131410;27;20373;-45
2023/09/29 12:42:40;;;;;;;;;;;21.30;99.90;;;;;;5132224;27;19915;-46
2023/09/29 12:45:07;;;;;;;;;;;21.20;99.90;;;;;;5139072;27;19955;-45
2023/09/29 12:47:33;;;;;;;;;;;21.10;99.90;;;;;;5143202;27;19912;-48
2023/09/29 12:49:58;;;;;;;;;;;21.10;99.90;;;;;;5129470;27;19916;-44
2023/09/29 12:52:24;;;;;;;;;;;21.00;99.90;;;;;;5131892;27;19966;-45
2023/09/29 12:54:51;;;;;;;;;;;21.00;99.90;;;;;;5134394;27;19915;-46
2023/09/29 12:57:18;;;;;;;;;;;20.90;99.90;;;;;;5133976;27;19961;-43
2023/09/29 12:59:44;;;;;;;;;;;20.80;99.90;;;;;;5131388;27;19918;-46
2023/09/29 13:02:09;;;;;;;;;;;20.60;99.90;;;;;;5135274;27;19907;-46
2023/09/29 13:04:36;;;;;;;;;;;20.30;99.90;;;;;;5135540;27;20074;-45
2023/09/29 13:07:02;;;;;;;;;;;20.10;99.90;;;;;;5135344;27;19911;-45
2023/09/29 13:09:28;;;;;;;;;;;19.90;99.90;;;;;;5134582;27;19908;-44
2023/09/29 13:11:54;;;;;;;;;;;19.70;99.90;;;;;;5133629;27;20293;-44
2023/09/29 13:14:19;;;;;;;;;;;19.60;99.90;;;;;;5130622;27;19918;-42
2023/09/29 13:16:45;;;;;;;;;;;19.60;99.90;;;;;;5133949;27;19915;-43
2023/09/29 13:19:10;;;;;;;;;;;19.60;99.90;;;;;;5124917;27;19965;-44
2023/09/29 13:21:36;;;;;;;;;;;19.50;99.90;;;;;;5135236;27;20258;-43
2023/09/29 13:24:01;;;;;;;;;;;19.30;99.90;;;;;;5135060;27;20270;-43
2023/09/29 13:26:27;;;;;;;;;;;19.20;99.90;;;;;;5115912;27;20047;-44
2023/09/29 13:28:52;;;;;;;;;;;19.00;99.90;;;;;;5127758;27;19907;-43
2023/09/29 13:31:18;;;;;;;;;;;18.80;99.90;;;;;;5135085;27;19907;-43
2023/09/29 13:33:43;;;;;;;;;;;18.60;99.90;;;;;;5126561;27;19927;-45
2023/09/29 13:36:09;;;;;;;;;;;18.50;99.90;;;;;;5114375;28;19908;-43
2023/09/29 13:38:34;;;;;;;;;;;18.40;99.90;;;;;;5126838;27;20376;-44
2023/09/29 13:41:00;;;;;;;;;;;18.40;99.90;;;;;;5131425;27;19955;-43
2023/09/29 13:43:26;;;;;;;;;;;18.40;99.90;;;;;;5101071;28;19920;-43
2023/09/29 13:45:51;;;;;;;;;;;18.30;99.90;;;;;;5124407;27;20383;-44
2023/09/29 13:48:21;;;;;;;;;;;18.40;99.90;;;;;;5134827;27;19921;-43
2023/09/29 13:50:48;;;;;;;;;;;18.40;99.90;;;;;;5093984;28;19912;-44
2023/09/29 13:53:13;;;;;;;;;;;18.50;99.90;;;;;;5095270;28;19923;-44
2023/09/29 13:55:39;;;;;;;;;;;18.40;99.90;;;;;;5113143;28;19971;-44
2023/09/29 13:58:05;;;;;;;;;;;18.40;99.90;;;;;;5112610;28;20315;-43
2023/09/29 14:00:31;;;;;;;;;;;18.40;99.90;;;;;;5122357;27;20393;-43
2023/09/29 14:02:57;;;;;;;;;;;18.30;99.90;;;;;;5112586;28;19915;-44
2023/09/29 14:05:23;;;;;;;;;;;18.20;99.90;;;;;;5119590;27;19912;-44
2023/09/29 14:07:48;;;;;;;;;;;18.20;99.90;;;;;;5121400;27;19907;-44
2023/09/29 14:10:16;;;;;;;;;;;18.20;99.90;;;;;;5121932;27;19943;-44
2023/09/29 14:12:42;;;;;;;;;;;18.30;99.90;;;;;;5123053;27;20247;-43